createdAt,value
2018-05-01T00:01:33.731Z,90.40
2018-05-01T00:04:01.543Z,90.50
2018-05-01T00:06:29.408Z,90.60
2018-05-01T00:08:57.169Z,90.60
2018-05-01T00:11:24.961Z,90.40
2018-05-01T00:13:52.793Z,90.40
2018-05-01T00:16:21.366Z,90.40
2018-05-01T00:18:49.920Z,90.40
2018-05-01T00:21:17.708Z,90.40
2018-05-01T00:23:46.314Z,90.60
2018-05-01T00:26:14.133Z,90.50
2018-05-01T00:28:41.905Z,90.40
2018-05-01T00:31:09.794Z,90.50
2018-05-01T00:33:38.349Z,90.60
2018-05-01T00:36:06.187Z,90.60
2018-05-01T00:38:34.084Z,90.90
2018-05-01T00:41:01.984Z,91.20
2018-05-01T00:43:29.781Z,91.50
2018-05-01T00:45:57.621Z,91.70
2018-05-01T00:48:25.398Z,91.90
2018-05-01T00:50:53.229Z,91.70
2018-05-01T00:53:21.785Z,91.60
2018-05-01T00:55:49.633Z,91.60
2018-05-01T00:58:17.486Z,91.60
2018-05-01T01:00:45.290Z,91.70
2018-05-01T01:03:13.091Z,91.60
2018-05-01T01:05:40.870Z,91.60
2018-05-01T01:08:08.716Z,91.60
2018-05-01T01:10:37.348Z,91.70
2018-05-01T01:13:05.210Z,91.70
2018-05-01T01:15:33.011Z,91.70
2018-05-01T01:18:00.865Z,91.80
2018-05-01T01:20:28.641Z,91.80
2018-05-01T01:22:56.435Z,91.80
2018-05-01T01:25:24.228Z,92.00
2018-05-01T01:27:52.018Z,92.00
2018-05-01T01:30:19.902Z,92.00
2018-05-01T01:32:53.666Z,92.00
2018-05-01T01:35:21.043Z,92.00
2018-05-01T01:37:48.341Z,92.00
2018-05-01T01:40:15.646Z,92.20
2018-05-01T01:42:42.944Z,92.70
2018-05-01T01:45:10.270Z,92.70
2018-05-01T01:47:38.366Z,92.90
2018-05-01T01:50:06.428Z,92.80
2018-05-01T01:52:34.584Z,92.90
2018-05-01T01:55:01.858Z,92.90
2018-05-01T01:57:29.280Z,92.80
2018-05-01T01:59:56.539Z,92.70
2018-05-01T02:02:23.861Z,92.70
2018-05-01T02:04:51.927Z,92.50
2018-05-01T02:07:19.207Z,92.50
2018-05-01T02:09:46.480Z,92.60
2018-05-01T02:12:14.522Z,92.70
2018-05-01T02:14:41.881Z,92.60
2018-05-01T02:17:09.238Z,92.70
2018-05-01T02:19:36.691Z,92.50
2018-05-01T02:22:04.041Z,92.50
2018-05-01T02:24:31.401Z,92.50
2018-05-01T02:26:58.712Z,92.40
2018-05-01T02:29:26.003Z,92.70
2018-05-01T02:31:53.370Z,92.70
2018-05-01T02:34:20.816Z,92.90
2018-05-01T02:36:48.100Z,93.70
2018-05-01T02:39:15.434Z,94.50
2018-05-01T02:41:42.737Z,94.80
2018-05-01T02:44:10.053Z,94.70
2018-05-01T02:46:38.203Z,94.90
2018-05-01T02:49:05.555Z,94.90
2018-05-01T02:51:33.016Z,95.90
2018-05-01T02:54:00.366Z,96.10
2018-05-01T02:56:27.651Z,96.40
2018-05-01T02:58:55.735Z,95.90
2018-05-01T03:01:23.007Z,95.90
2018-05-01T03:03:50.295Z,95.20
2018-05-01T03:06:17.564Z,95.30
2018-05-01T03:08:45.591Z,95.10
2018-05-01T03:11:12.905Z,95.10
2018-05-01T03:13:41.039Z,96.00
2018-05-01T03:16:08.395Z,96.00
2018-05-01T03:18:35.748Z,96.40
2018-05-01T03:21:03.101Z,96.30
2018-05-01T03:23:30.455Z,96.30
2018-05-01T03:25:57.813Z,96.40
2018-05-01T03:28:25.163Z,96.00
2018-05-01T03:30:52.520Z,95.80
2018-05-01T03:33:19.871Z,95.90
2018-05-01T03:35:47.436Z,96.10
2018-05-01T03:38:14.786Z,96.10
2018-05-01T03:40:42.246Z,95.90
2018-05-01T03:43:09.595Z,95.50
2018-05-01T03:45:36.918Z,94.90
2018-05-01T03:48:04.259Z,95.00
2018-05-01T03:50:31.657Z,95.10
2018-05-01T03:52:58.982Z,95.30
2018-05-01T03:55:26.342Z,95.20
2018-05-01T03:57:53.641Z,95.40
2018-05-01T04:00:21.037Z,95.50
2018-05-01T04:02:48.325Z,95.20
2018-05-01T04:05:15.666Z,95.20
2018-05-01T04:07:42.996Z,95.10
2018-05-01T04:10:10.353Z,95.30
2018-05-01T04:12:37.712Z,95.10
2018-05-01T04:15:05.103Z,94.90
2018-05-01T04:17:32.453Z,95.40
2018-05-01T04:19:59.912Z,95.50
2018-05-01T04:22:27.232Z,95.10
2018-05-01T04:24:54.589Z,94.90
2018-05-01T04:27:21.917Z,94.50
2018-05-01T04:29:49.299Z,94.50
2018-05-01T04:32:16.765Z,94.60
2018-05-01T04:34:44.217Z,95.00
2018-05-01T04:37:11.668Z,95.10
2018-05-01T04:39:39.026Z,95.00
2018-05-01T04:42:06.383Z,95.40
2018-05-01T04:44:33.730Z,96.20
2018-05-01T04:47:01.088Z,96.70
2018-05-01T04:49:28.441Z,97.10
2018-05-01T04:51:55.897Z,97.40
2018-05-01T04:54:23.251Z,98.00
2018-05-01T04:56:50.708Z,97.90
2018-05-01T04:59:18.060Z,97.90
2018-05-01T05:01:45.417Z,97.50
2018-05-01T05:04:12.870Z,97.30
2018-05-01T05:06:40.329Z,97.30
2018-05-01T05:09:07.785Z,96.80
2018-05-01T05:11:35.241Z,96.40
2018-05-01T05:14:02.696Z,96.40
2018-05-01T05:16:30.050Z,96.30
2018-05-01T05:18:57.404Z,96.00
2018-05-01T05:21:29.557Z,95.90
2018-05-01T05:23:56.892Z,95.80
2018-05-01T05:26:24.279Z,95.20
2018-05-01T05:28:51.739Z,94.80
2018-05-01T05:31:19.166Z,94.40
2018-05-01T05:33:46.520Z,94.10
2018-05-01T05:36:13.905Z,94.00
2018-05-01T05:38:41.213Z,94.20
2018-05-01T05:41:08.817Z,94.10
2018-05-01T05:43:36.172Z,93.50
2018-05-01T05:46:03.574Z,93.30
2018-05-01T05:48:30.980Z,93.00
2018-05-01T05:50:58.334Z,93.10
2018-05-01T05:53:25.792Z,93.60
2018-05-01T05:55:54.282Z,93.70
2018-05-01T05:58:21.828Z,93.50
2018-05-01T06:00:49.283Z,93.50
2018-05-01T06:03:16.743Z,93.40
2018-05-01T06:05:44.097Z,93.40
2018-05-01T06:08:11.449Z,93.00
2018-05-01T06:10:51.642Z,92.50
2018-05-01T06:13:19.780Z,90.80
2018-05-01T06:15:47.131Z,90.70
2018-05-01T06:18:14.485Z,90.60
2018-05-01T06:20:41.838Z,90.60
2018-05-01T06:23:09.299Z,91.00
2018-05-01T06:25:36.613Z,91.10
2018-05-01T06:28:04.007Z,90.60
2018-05-01T06:30:31.458Z,90.30
2018-05-01T06:32:58.815Z,89.30
2018-05-01T06:35:26.273Z,90.10
2018-05-01T06:37:53.628Z,88.70
2018-05-01T06:40:20.982Z,88.50
2018-05-01T06:42:48.494Z,88.80
2018-05-01T06:45:15.891Z,87.20
2018-05-01T06:47:43.249Z,87.90
2018-05-01T06:50:10.706Z,87.40
2018-05-01T06:52:38.061Z,86.00
2018-05-01T06:55:05.410Z,85.20
2018-05-01T06:57:32.767Z,84.10
2018-05-01T07:00:00.224Z,82.60
2018-05-01T07:02:27.646Z,80.90
2018-05-01T07:04:55.036Z,82.80
2018-05-01T07:07:22.492Z,82.30
2018-05-01T07:09:49.954Z,81.70
2018-05-01T07:12:18.797Z,83.30
2018-05-01T07:14:46.191Z,83.40
2018-05-01T07:17:13.505Z,83.20
2018-05-01T07:19:40.899Z,82.00
2018-05-01T07:22:08.256Z,82.10
2018-05-01T07:24:35.607Z,80.50
2018-05-01T07:27:03.164Z,80.20
2018-05-01T07:29:30.621Z,79.70
2018-05-01T07:31:58.078Z,77.40
2018-05-01T07:34:25.431Z,76.20
2018-05-01T07:36:52.784Z,73.90
2018-05-01T07:39:20.143Z,73.30
2018-05-01T07:41:47.582Z,72.20
2018-05-01T07:44:14.949Z,73.70
2018-05-01T07:46:42.323Z,74.90
2018-05-01T07:49:09.724Z,75.80
2018-05-01T07:51:37.831Z,79.30
2018-05-01T07:54:05.289Z,79.30
2018-05-01T07:56:32.609Z,79.50
2018-05-01T07:58:59.995Z,79.10
2018-05-01T08:01:27.350Z,77.60
2018-05-01T08:03:54.635Z,77.90
2018-05-01T08:06:22.845Z,77.90
2018-05-01T08:08:50.378Z,77.80
2018-05-01T08:11:17.598Z,78.80
2018-05-01T08:13:45.043Z,79.10
2018-05-01T08:16:12.400Z,78.80
2018-05-01T08:18:39.839Z,78.90
2018-05-01T08:21:07.308Z,79.50
2018-05-01T08:23:34.666Z,80.70
2018-05-01T08:26:02.123Z,80.90
2018-05-01T08:28:29.482Z,80.40
2018-05-01T08:30:57.752Z,79.00
2018-05-01T08:33:25.208Z,79.00
2018-05-01T08:35:52.766Z,80.30
2018-05-01T08:38:20.125Z,79.50
2018-05-01T08:40:47.475Z,78.90
2018-05-01T08:43:14.934Z,79.00
2018-05-01T08:45:42.283Z,78.00
2018-05-01T08:48:09.641Z,77.50
2018-05-01T08:50:37.198Z,75.90
2018-05-01T08:53:04.555Z,74.90
2018-05-01T08:55:31.905Z,76.00
2018-05-01T08:57:59.260Z,74.40
2018-05-01T09:00:26.617Z,74.40
2018-05-01T09:02:53.972Z,72.70
2018-05-01T09:05:21.322Z,73.60
2018-05-01T09:07:48.679Z,73.80
2018-05-01T09:10:16.136Z,76.10
2018-05-01T09:12:43.488Z,75.70
2018-05-01T09:15:10.842Z,76.20
2018-05-01T09:17:39.212Z,75.80
2018-05-01T09:20:06.678Z,74.10
2018-05-01T09:22:34.029Z,73.20
2018-05-01T09:25:01.384Z,72.10
2018-05-01T09:27:28.740Z,70.90
2018-05-01T09:29:56.162Z,70.50
2018-05-01T09:32:23.548Z,69.60
2018-05-01T09:34:51.008Z,69.10
2018-05-01T09:37:18.461Z,68.80
2018-05-01T09:39:45.918Z,68.20
2018-05-01T09:42:13.272Z,67.30
2018-05-01T09:44:40.629Z,66.30
2018-05-01T09:47:07.985Z,66.30
2018-05-01T09:49:35.341Z,66.60
2018-05-01T09:52:02.795Z,66.90
2018-05-01T09:54:30.663Z,65.50
2018-05-01T09:56:58.627Z,65.80
2018-05-01T09:59:26.594Z,64.80
2018-05-01T10:01:54.461Z,62.70
2018-05-01T10:04:22.534Z,62.70
2018-05-01T10:06:51.937Z,60.00
2018-05-01T10:09:19.801Z,60.00
2018-05-01T10:11:47.668Z,59.60
2018-05-01T10:14:15.634Z,57.80
2018-05-01T10:16:43.504Z,56.40
2018-05-01T10:19:12.191Z,48.50
2018-05-01T10:21:40.056Z,48.00
2018-05-01T10:24:08.021Z,49.10
2018-05-01T10:26:35.890Z,47.20
2018-05-01T10:29:03.855Z,43.80
2018-05-01T10:31:31.721Z,43.00
2018-05-01T10:33:59.592Z,46.40
2018-05-01T10:36:27.557Z,47.40
2018-05-01T10:38:55.521Z,50.00
2018-05-01T10:41:23.392Z,52.60
2018-05-01T10:43:51.256Z,54.10
2018-05-01T10:46:19.228Z,54.50
2018-05-01T10:48:47.199Z,53.00
2018-05-01T10:51:15.061Z,50.70
2018-05-01T10:53:43.033Z,52.50
2018-05-01T10:56:11.715Z,52.70
2018-05-01T10:58:39.686Z,52.70
2018-05-01T11:01:07.552Z,53.00
2018-05-01T11:03:35.517Z,54.10
2018-05-01T11:06:03.485Z,53.40
2018-05-01T11:08:31.457Z,55.90
2018-05-01T11:10:59.245Z,54.10
2018-05-01T11:13:27.963Z,55.90
2018-05-01T11:15:55.875Z,55.90
2018-05-01T11:18:25.279Z,56.90
2018-05-01T11:20:54.674Z,56.90
2018-05-01T11:23:22.543Z,56.90
2018-05-01T11:25:50.515Z,56.10
2018-05-01T11:28:19.912Z,57.10
2018-05-01T11:30:47.782Z,57.10
2018-05-01T11:33:15.747Z,56.40
2018-05-01T11:35:43.615Z,56.70
2018-05-01T11:38:11.649Z,58.40
2018-05-01T11:40:39.479Z,58.40
2018-05-01T11:43:08.135Z,59.10
2018-05-01T11:45:36.004Z,59.10
2018-05-01T11:48:03.822Z,58.10
2018-05-01T11:50:31.735Z,59.10
2018-05-01T11:52:59.605Z,58.40
2018-05-01T11:55:27.669Z,58.50
2018-05-01T11:57:55.537Z,60.00
2018-05-01T12:00:23.567Z,60.40
2018-05-01T12:02:51.476Z,62.60
2018-05-01T12:05:19.339Z,64.90
2018-05-01T12:07:47.209Z,63.80
2018-05-01T12:10:15.077Z,64.50
2018-05-01T12:12:42.936Z,63.80
2018-05-01T12:15:10.909Z,62.60
2018-05-01T12:17:38.771Z,63.60
2018-05-01T12:20:06.639Z,62.60
2018-05-01T12:22:34.511Z,65.20
2018-05-01T12:25:02.377Z,66.60
2018-05-01T12:27:30.237Z,66.70
2018-05-01T12:29:58.256Z,65.80
2018-05-01T12:32:26.173Z,68.20
2018-05-01T12:34:54.047Z,67.30
2018-05-01T12:37:23.447Z,67.00
2018-05-01T12:39:51.312Z,67.00
2018-05-01T12:42:19.383Z,68.30
2018-05-01T12:44:47.244Z,70.90
2018-05-01T12:47:15.076Z,70.50
2018-05-01T12:49:42.857Z,73.30
2018-05-01T12:52:10.744Z,75.00
2018-05-01T12:54:38.815Z,74.90
2018-05-01T12:57:06.780Z,75.40
2018-05-01T12:59:34.750Z,75.10
2018-05-01T13:02:02.511Z,75.60
2018-05-01T13:04:30.320Z,77.10
2018-05-01T13:06:58.168Z,79.20
2018-05-01T13:09:26.696Z,80.80
2018-05-01T13:11:54.533Z,80.80
2018-05-01T13:14:22.458Z,81.60
2018-05-01T13:16:50.229Z,82.30
2018-05-01T13:19:18.174Z,82.20
2018-05-01T13:21:46.059Z,82.60
2018-05-01T13:24:14.028Z,80.90
2018-05-01T13:26:41.890Z,82.50
2018-05-01T13:29:09.759Z,87.30
2018-05-01T13:31:37.578Z,88.90
2018-05-01T13:34:05.375Z,90.00
2018-05-01T13:36:33.177Z,90.20
2018-05-01T13:39:01.837Z,87.30
2018-05-01T13:41:29.645Z,87.20
2018-05-01T13:43:57.573Z,88.50
2018-05-01T13:46:25.501Z,88.40
2018-05-01T13:48:53.343Z,90.00
2018-05-01T13:51:21.151Z,90.30
2018-05-01T13:53:48.914Z,90.90
2018-05-01T13:56:16.733Z,90.30
2018-05-01T13:58:45.392Z,86.80
2018-05-01T14:01:13.222Z,86.80
2018-05-01T14:03:40.996Z,84.90
2018-05-01T14:06:08.785Z,83.60
2018-05-01T14:08:36.569Z,83.40
2018-05-01T14:11:05.234Z,78.60
2018-05-01T14:13:33.000Z,78.60
2018-05-01T14:16:00.841Z,77.00
2018-05-01T14:18:28.625Z,74.90
2018-05-01T14:20:56.448Z,82.50
2018-05-01T14:23:24.206Z,86.30
2018-05-01T14:25:52.000Z,84.50
2018-05-01T14:28:19.875Z,84.20
2018-05-01T14:30:47.694Z,82.20
2018-05-01T14:33:15.499Z,81.20
2018-05-01T14:35:43.280Z,83.80
2018-05-01T14:38:11.117Z,82.60
2018-05-01T14:40:39.030Z,81.60
2018-05-01T14:43:07.563Z,84.60
2018-05-01T14:45:35.429Z,84.60
2018-05-01T14:48:03.321Z,86.20
2018-05-01T14:50:31.194Z,86.60
2018-05-01T14:52:59.110Z,86.00
2018-05-01T14:55:27.073Z,86.30
2018-05-01T14:57:54.866Z,89.00
2018-05-01T15:00:22.754Z,89.80
2018-05-01T15:03:02.487Z,88.90
2018-05-01T15:05:30.297Z,89.60
2018-05-01T15:07:58.943Z,91.40
2018-05-01T15:10:26.717Z,91.10
2018-05-01T15:12:54.678Z,91.20
2018-05-01T15:15:22.506Z,92.20
2018-05-01T15:17:50.611Z,93.00
2018-05-01T15:20:18.477Z,92.70
2018-05-01T15:22:46.347Z,92.90
2018-05-01T15:25:14.211Z,93.50
2018-05-01T15:27:42.079Z,93.30
2018-05-01T15:30:10.055Z,94.40
2018-05-01T15:32:37.981Z,94.80
2018-05-01T15:35:05.882Z,94.30
2018-05-01T15:37:33.726Z,94.00
2018-05-01T15:40:01.529Z,94.20
2018-05-01T15:42:30.137Z,94.30
2018-05-01T15:44:58.059Z,94.30
2018-05-01T15:47:25.931Z,94.40
2018-05-01T15:49:53.798Z,94.40
2018-05-01T15:52:21.663Z,94.30
2018-05-01T15:54:49.528Z,94.60
2018-05-01T15:57:17.394Z,94.50
2018-05-01T15:59:45.258Z,94.40
2018-05-01T16:02:13.329Z,94.80
2018-05-01T16:04:41.194Z,94.90
2018-05-01T16:07:09.265Z,94.80
2018-05-01T16:09:37.132Z,95.20
2018-05-01T16:12:04.978Z,95.20
2018-05-01T16:14:32.761Z,95.50
2018-05-01T16:17:00.661Z,95.80
2018-05-01T16:19:28.698Z,96.00
2018-05-01T16:21:56.978Z,96.00
2018-05-01T16:24:24.946Z,95.90
2018-05-01T16:26:52.765Z,96.20
2018-05-01T16:29:20.530Z,96.40
2018-05-01T16:31:48.307Z,96.40
2018-05-01T16:34:16.308Z,96.60
2018-05-01T16:36:44.171Z,96.80
2018-05-01T16:39:12.017Z,96.80
2018-05-01T16:41:39.904Z,96.70
2018-05-01T16:44:07.857Z,97.00
2018-05-01T16:46:35.710Z,97.60
2018-05-01T16:49:03.498Z,97.90
2018-05-01T16:51:31.345Z,97.90
2018-05-01T16:53:59.133Z,97.40
2018-05-01T16:56:26.900Z,97.50
2018-05-01T16:58:54.761Z,98.10
2018-05-01T17:01:22.734Z,98.30
2018-05-01T17:03:50.714Z,98.40
2018-05-01T17:06:18.512Z,98.20
2018-05-01T17:08:46.293Z,98.30
2018-05-01T17:11:14.195Z,98.20
2018-05-01T17:13:42.269Z,98.20
2018-05-01T17:16:10.134Z,98.20
2018-05-01T17:18:38.105Z,98.20
2018-05-01T17:21:05.968Z,98.50
2018-05-01T17:23:33.836Z,99.60
2018-05-01T17:26:01.700Z,99.60
2018-05-01T17:28:29.547Z,99.80
2018-05-01T17:30:57.430Z,99.80
2018-05-01T17:33:25.298Z,99.90
2018-05-01T17:35:53.984Z,99.90
2018-05-01T17:38:21.853Z,99.90
2018-05-01T17:40:49.743Z,99.90
2018-05-01T17:43:18.402Z,99.90
2018-05-01T17:45:46.236Z,99.90
2018-05-01T17:48:14.137Z,99.90
2018-05-01T17:50:41.956Z,99.90
2018-05-01T17:53:09.721Z,99.90
2018-05-01T17:55:37.582Z,99.90
2018-05-01T17:58:05.400Z,99.90
2018-05-01T18:00:33.256Z,99.90
2018-05-01T18:03:01.094Z,99.90
2018-05-01T18:05:29.060Z,99.90
2018-05-01T18:07:56.961Z,99.90
2018-05-01T18:10:24.827Z,99.90
2018-05-01T18:12:52.658Z,99.90
2018-05-01T18:15:20.557Z,99.90
2018-05-01T18:17:48.530Z,99.90
2018-05-01T18:20:16.395Z,99.90
2018-05-01T18:22:44.365Z,99.90
2018-05-01T18:25:12.338Z,99.90
2018-05-01T18:27:40.297Z,99.90
2018-05-01T18:30:08.164Z,99.90
2018-05-01T18:32:36.032Z,99.90
2018-05-01T18:35:04.001Z,99.90
2018-05-01T18:37:31.863Z,99.90
2018-05-01T18:39:59.730Z,99.90
2018-05-01T18:42:27.600Z,99.90
2018-05-01T18:44:55.408Z,99.90
2018-05-01T18:47:23.240Z,99.90
2018-05-01T18:49:52.015Z,99.90
2018-05-01T18:52:19.879Z,99.90
2018-05-01T18:54:47.751Z,99.90
2018-05-01T18:57:15.717Z,99.90
2018-05-01T18:59:43.686Z,99.90
2018-05-01T19:02:11.552Z,99.90
2018-05-01T19:04:39.621Z,99.90
2018-05-01T19:07:07.690Z,99.90
2018-05-01T19:09:35.556Z,99.90
2018-05-01T19:12:03.485Z,99.90
2018-05-01T19:14:31.502Z,99.90
2018-05-01T19:16:59.361Z,99.90
2018-05-01T19:19:27.431Z,99.90
2018-05-01T19:21:55.400Z,99.90
2018-05-01T19:24:23.222Z,99.90
2018-05-01T19:26:51.131Z,99.90
2018-05-01T19:29:18.998Z,99.90
2018-05-01T19:31:46.868Z,99.90
2018-05-01T19:34:14.738Z,99.90
2018-05-01T19:36:42.699Z,99.90
2018-05-01T19:39:11.486Z,99.90
2018-05-01T19:41:39.457Z,99.90
2018-05-01T19:44:07.427Z,99.90
2018-05-01T19:46:36.054Z,99.90
2018-05-01T19:49:04.693Z,99.90
2018-05-01T19:51:33.665Z,99.90
2018-05-01T19:54:02.642Z,99.90
2018-05-01T19:56:31.896Z,99.90
2018-05-01T19:59:01.479Z,99.90
2018-05-01T20:01:30.524Z,99.90
2018-05-01T20:03:59.160Z,99.90
2018-05-01T20:06:28.014Z,99.90
2018-05-01T20:08:57.065Z,99.90
2018-05-01T20:11:26.705Z,99.90
2018-05-01T20:13:55.610Z,99.90
2018-05-01T20:16:23.766Z,99.90
2018-05-01T20:18:51.788Z,99.90
2018-05-01T20:21:19.958Z,99.90
2018-05-01T20:23:48.603Z,99.90
2018-05-01T20:26:17.265Z,99.90
2018-05-01T20:28:46.489Z,99.90
2018-05-01T20:31:15.106Z,99.90
2018-05-01T20:33:43.079Z,99.90
2018-05-01T20:36:10.944Z,99.90
2018-05-01T20:38:38.911Z,99.90
2018-05-01T20:41:06.776Z,99.90
2018-05-01T20:43:34.748Z,99.90
2018-05-01T20:46:03.126Z,99.90
2018-05-01T20:48:31.094Z,99.90
2018-05-01T20:50:58.925Z,99.90
2018-05-01T20:53:26.829Z,99.90
2018-05-01T20:55:54.654Z,99.90
2018-05-01T20:58:22.558Z,99.90
2018-05-01T21:00:50.627Z,99.90
2018-05-01T21:03:18.493Z,99.90
2018-05-01T21:05:46.462Z,99.90
2018-05-01T21:08:14.330Z,99.90
2018-05-01T21:10:42.193Z,99.90
2018-05-01T21:13:10.064Z,99.90
2018-05-01T21:15:37.928Z,99.90
2018-05-01T21:18:05.795Z,99.90
2018-05-01T21:20:33.659Z,99.90
2018-05-01T21:23:01.525Z,99.90
2018-05-01T21:25:29.402Z,99.90
2018-05-01T21:27:57.435Z,99.90
2018-05-01T21:30:25.331Z,99.90
2018-05-01T21:32:53.195Z,99.90
2018-05-01T21:35:21.058Z,99.90
2018-05-01T21:37:49.032Z,99.90
2018-05-01T21:40:16.998Z,99.90
2018-05-01T21:42:44.817Z,99.90
2018-05-01T21:45:12.734Z,99.90
2018-05-01T21:47:40.558Z,99.90
2018-05-01T21:50:08.466Z,99.90
2018-05-01T21:52:36.331Z,99.90
2018-05-01T21:55:04.299Z,99.90
2018-05-01T21:57:32.272Z,99.90
2018-05-01T22:00:00.236Z,99.90
2018-05-01T22:02:28.205Z,99.90
2018-05-01T22:04:56.277Z,99.90
2018-05-01T22:07:24.246Z,99.90
2018-05-01T22:09:52.220Z,99.90
2018-05-01T22:12:20.083Z,99.90
2018-05-01T22:14:48.044Z,99.90
2018-05-01T22:17:15.913Z,99.90
2018-05-01T22:19:43.780Z,99.90
2018-05-01T22:22:11.813Z,99.90
2018-05-01T22:24:39.713Z,99.90
2018-05-01T22:27:07.585Z,99.90
2018-05-01T22:29:35.605Z,99.90
2018-05-01T22:32:03.457Z,99.90
2018-05-01T22:34:31.280Z,99.90
2018-05-01T22:36:59.113Z,99.90
2018-05-01T22:39:27.017Z,99.90
2018-05-01T22:41:54.982Z,99.90
2018-05-01T22:44:22.847Z,99.90
2018-05-01T22:46:50.717Z,99.90
2018-05-01T22:49:18.579Z,99.90
2018-05-01T22:51:46.445Z,99.90
2018-05-01T22:54:14.316Z,99.90
2018-05-01T22:56:42.285Z,99.90
2018-05-01T22:59:10.150Z,99.90
2018-05-01T23:01:38.120Z,99.90
2018-05-01T23:04:06.084Z,99.90
2018-05-01T23:06:34.154Z,99.90
2018-05-01T23:09:02.027Z,99.90
2018-05-01T23:11:29.892Z,99.90
2018-05-01T23:13:57.753Z,99.90
2018-05-01T23:16:25.621Z,99.90
2018-05-01T23:18:53.486Z,99.90
2018-05-01T23:21:21.353Z,99.90
2018-05-01T23:23:49.423Z,99.90
2018-05-01T23:26:17.287Z,99.90
2018-05-01T23:28:45.261Z,99.90
2018-05-01T23:31:13.225Z,99.90
2018-05-01T23:33:41.092Z,99.90
2018-05-01T23:36:09.165Z,99.90
2018-05-01T23:38:37.032Z,99.90
2018-05-01T23:41:04.899Z,99.90
2018-05-01T23:43:32.764Z,99.90
2018-05-01T23:48:34.742Z,99.90
2018-05-01T23:51:02.609Z,99.90
2018-05-01T23:53:30.472Z,99.90
2018-05-01T23:55:58.444Z,99.90
2018-05-01T23:58:26.308Z,99.90
